sensor_id;sensor_type;location;lat;lon;timestamp;P1;durP1;ratioP1;P2;durP2;ratioP2
40286;SDS011;25998;46.604;13.610;2023-05-10T00:01:49;5.63;;;3.25;;
40286;SDS011;25998;46.604;13.610;2023-05-10T00:04:59;6.20;;;2.92;;
40286;SDS011;25998;46.604;13.610;2023-05-10T00:08:10;5.10;;;3.17;;
40286;SDS011;25998;46.604;13.610;2023-05-10T00:11:21;5.50;;;3.60;;
40286;SDS011;25998;46.604;13.610;2023-05-10T00:14:32;3.95;;;2.97;;
40286;SDS011;25998;46.604;13.610;2023-05-10T00:17:43;4.30;;;3.20;;
40286;SDS011;25998;46.604;13.610;2023-05-10T00:20:54;5.18;;;3.38;;
40286;SDS011;25998;46.604;13.610;2023-05-10T00:24:05;3.72;;;3.08;;
40286;SDS011;25998;46.604;13.610;2023-05-10T00:27:16;4.55;;;3.10;;
40286;SDS011;25998;46.604;13.610;2023-05-10T00:30:26;6.63;;;3.33;;
40286;SDS011;25998;46.604;13.610;2023-05-10T00:33:37;6.20;;;3.85;;
40286;SDS011;25998;46.604;13.610;2023-05-10T00:36:48;5.38;;;3.20;;
40286;SDS011;25998;46.604;13.610;2023-05-10T00:39:59;4.28;;;3.20;;
40286;SDS011;25998;46.604;13.610;2023-05-10T00:43:10;4.85;;;3.53;;
40286;SDS011;25998;46.604;13.610;2023-05-10T00:46:21;4.35;;;2.85;;
40286;SDS011;25998;46.604;13.610;2023-05-10T00:49:32;6.28;;;3.38;;
40286;SDS011;25998;46.604;13.610;2023-05-10T00:52:43;5.82;;;3.58;;
40286;SDS011;25998;46.604;13.610;2023-05-10T00:55:54;5.82;;;4.07;;
40286;SDS011;25998;46.604;13.610;2023-05-10T00:59:05;7.10;;;4.05;;
40286;SDS011;25998;46.604;13.610;2023-05-10T01:02:17;5.85;;;3.83;;
40286;SDS011;25998;46.604;13.610;2023-05-10T01:05:28;4.97;;;3.83;;
40286;SDS011;25998;46.604;13.610;2023-05-10T01:08:39;7.05;;;4.35;;
40286;SDS011;25998;46.604;13.610;2023-05-10T01:11:51;6.00;;;3.85;;
40286;SDS011;25998;46.604;13.610;2023-05-10T01:15:02;4.95;;;3.50;;
40286;SDS011;25998;46.604;13.610;2023-05-10T01:18:15;6.65;;;3.97;;
40286;SDS011;25998;46.604;13.610;2023-05-10T01:21:33;5.70;;;3.30;;
40286;SDS011;25998;46.604;13.610;2023-05-10T01:28:34;5.18;;;3.40;;
40286;SDS011;25998;46.604;13.610;2023-05-10T01:38:43;4.22;;;3.33;;
40286;SDS011;25998;46.604;13.610;2023-05-10T01:42:02;7.82;;;3.72;;
40286;SDS011;25998;46.604;13.610;2023-05-10T01:48:42;4.68;;;3.80;;
40286;SDS011;25998;46.604;13.610;2023-05-10T01:52:06;5.83;;;3.60;;
40286;SDS011;25998;46.604;13.610;2023-05-10T01:55:23;4.25;;;3.33;;
40286;SDS011;25998;46.604;13.610;2023-05-10T01:58:38;5.53;;;3.47;;
40286;SDS011;25998;46.604;13.610;2023-05-10T02:01:54;5.65;;;3.63;;
40286;SDS011;25998;46.604;13.610;2023-05-10T02:05:08;4.63;;;3.40;;
40286;SDS011;25998;46.604;13.610;2023-05-10T02:08:22;4.18;;;3.42;;
40286;SDS011;25998;46.604;13.610;2023-05-10T02:11:34;5.68;;;3.47;;
40286;SDS011;25998;46.604;13.610;2023-05-10T02:14:47;6.78;;;3.65;;
40286;SDS011;25998;46.604;13.610;2023-05-10T02:17:59;7.72;;;3.80;;
40286;SDS011;25998;46.604;13.610;2023-05-10T02:21:12;5.38;;;3.40;;
40286;SDS011;25998;46.604;13.610;2023-05-10T02:24:25;6.70;;;3.67;;
40286;SDS011;25998;46.604;13.610;2023-05-10T02:27:38;7.28;;;4.28;;
40286;SDS011;25998;46.604;13.610;2023-05-10T02:30:52;6.20;;;4.35;;
40286;SDS011;25998;46.604;13.610;2023-05-10T02:34:05;5.15;;;3.53;;
40286;SDS011;25998;46.604;13.610;2023-05-10T02:37:19;5.70;;;4.18;;
40286;SDS011;25998;46.604;13.610;2023-05-10T02:40:31;3.80;;;3.25;;
40286;SDS011;25998;46.604;13.610;2023-05-10T02:43:43;4.70;;;3.42;;
40286;SDS011;25998;46.604;13.610;2023-05-10T02:46:55;4.88;;;3.78;;
40286;SDS011;25998;46.604;13.610;2023-05-10T02:50:07;5.90;;;3.83;;
40286;SDS011;25998;46.604;13.610;2023-05-10T02:53:18;6.45;;;3.67;;
40286;SDS011;25998;46.604;13.610;2023-05-10T02:56:33;7.03;;;4.22;;
40286;SDS011;25998;46.604;13.610;2023-05-10T02:59:46;3.92;;;3.47;;
40286;SDS011;25998;46.604;13.610;2023-05-10T03:02:57;7.25;;;4.10;;
40286;SDS011;25998;46.604;13.610;2023-05-10T03:06:08;4.22;;;3.35;;
40286;SDS011;25998;46.604;13.610;2023-05-10T03:09:19;4.95;;;3.72;;
40286;SDS011;25998;46.604;13.610;2023-05-10T03:16:25;5.80;;;3.30;;
40286;SDS011;25998;46.604;13.610;2023-05-10T03:19:42;6.87;;;3.70;;
40286;SDS011;25998;46.604;13.610;2023-05-10T03:26:35;5.22;;;3.90;;
40286;SDS011;25998;46.604;13.610;2023-05-10T03:29:47;6.65;;;3.40;;
40286;SDS011;25998;46.604;13.610;2023-05-10T03:33:03;4.80;;;3.60;;
40286;SDS011;25998;46.604;13.610;2023-05-10T03:36:16;5.35;;;3.90;;
40286;SDS011;25998;46.604;13.610;2023-05-10T03:39:27;13.00;;;5.35;;
40286;SDS011;25998;46.604;13.610;2023-05-10T03:42:38;7.13;;;3.45;;
40286;SDS011;25998;46.604;13.610;2023-05-10T03:45:49;4.90;;;3.78;;
40286;SDS011;25998;46.604;13.610;2023-05-10T03:49:00;8.05;;;4.75;;
40286;SDS011;25998;46.604;13.610;2023-05-10T03:52:11;7.28;;;4.03;;
40286;SDS011;25998;46.604;13.610;2023-05-10T03:55:22;6.38;;;4.07;;
40286;SDS011;25998;46.604;13.610;2023-05-10T03:58:32;5.20;;;3.50;;
40286;SDS011;25998;46.604;13.610;2023-05-10T04:01:43;5.40;;;4.22;;
40286;SDS011;25998;46.604;13.610;2023-05-10T04:04:54;5.15;;;3.35;;
40286;SDS011;25998;46.604;13.610;2023-05-10T04:08:05;14.35;;;4.25;;
40286;SDS011;25998;46.604;13.610;2023-05-10T04:11:16;9.77;;;3.95;;
40286;SDS011;25998;46.604;13.610;2023-05-10T04:14:27;6.30;;;4.03;;
40286;SDS011;25998;46.604;13.610;2023-05-10T04:17:38;8.05;;;4.05;;
40286;SDS011;25998;46.604;13.610;2023-05-10T04:20:49;5.38;;;4.22;;
40286;SDS011;25998;46.604;13.610;2023-05-10T04:24:00;6.97;;;4.07;;
40286;SDS011;25998;46.604;13.610;2023-05-10T04:27:11;6.10;;;3.78;;
40286;SDS011;25998;46.604;13.610;2023-05-10T04:30:21;6.03;;;4.10;;
40286;SDS011;25998;46.604;13.610;2023-05-10T04:33:32;6.60;;;4.20;;
40286;SDS011;25998;46.604;13.610;2023-05-10T04:36:44;11.68;;;4.65;;
40286;SDS011;25998;46.604;13.610;2023-05-10T04:39:55;7.55;;;4.22;;
40286;SDS011;25998;46.604;13.610;2023-05-10T04:43:05;6.30;;;4.78;;
40286;SDS011;25998;46.604;13.610;2023-05-10T04:46:16;6.70;;;5.07;;
40286;SDS011;25998;46.604;13.610;2023-05-10T04:49:27;9.30;;;5.32;;
40286;SDS011;25998;46.604;13.610;2023-05-10T04:52:39;5.18;;;4.68;;
40286;SDS011;25998;46.604;13.610;2023-05-10T04:55:50;5.55;;;4.40;;
40286;SDS011;25998;46.604;13.610;2023-05-10T04:59:01;6.05;;;4.53;;
40286;SDS011;25998;46.604;13.610;2023-05-10T05:02:12;7.97;;;4.78;;
40286;SDS011;25998;46.604;13.610;2023-05-10T05:05:23;7.53;;;4.60;;
40286;SDS011;25998;46.604;13.610;2023-05-10T05:08:34;8.02;;;5.10;;
40286;SDS011;25998;46.604;13.610;2023-05-10T05:11:45;8.68;;;4.57;;
40286;SDS011;25998;46.604;13.610;2023-05-10T05:14:56;6.30;;;4.97;;
40286;SDS011;25998;46.604;13.610;2023-05-10T05:18:08;6.70;;;4.60;;
40286;SDS011;25998;46.604;13.610;2023-05-10T05:21:19;7.90;;;5.50;;
40286;SDS011;25998;46.604;13.610;2023-05-10T05:24:34;5.53;;;4.70;;
40286;SDS011;25998;46.604;13.610;2023-05-10T05:27:47;6.40;;;4.78;;
40286;SDS011;25998;46.604;13.610;2023-05-10T05:30:58;5.72;;;4.50;;
40286;SDS011;25998;46.604;13.610;2023-05-10T05:34:09;7.32;;;4.88;;
40286;SDS011;25998;46.604;13.610;2023-05-10T05:37:20;6.28;;;4.93;;
40286;SDS011;25998;46.604;13.610;2023-05-10T05:40:32;5.40;;;4.88;;
40286;SDS011;25998;46.604;13.610;2023-05-10T05:43:43;5.25;;;4.63;;
40286;SDS011;25998;46.604;13.610;2023-05-10T05:46:54;6.25;;;4.70;;
40286;SDS011;25998;46.604;13.610;2023-05-10T05:50:05;6.20;;;5.25;;
40286;SDS011;25998;46.604;13.610;2023-05-10T05:53:16;6.50;;;5.28;;
40286;SDS011;25998;46.604;13.610;2023-05-10T05:56:27;6.38;;;5.50;;
40286;SDS011;25998;46.604;13.610;2023-05-10T05:59:38;7.22;;;5.38;;
40286;SDS011;25998;46.604;13.610;2023-05-10T06:02:53;6.65;;;5.47;;
40286;SDS011;25998;46.604;13.610;2023-05-10T06:06:04;5.97;;;5.38;;
40286;SDS011;25998;46.604;13.610;2023-05-10T06:09:15;6.10;;;5.07;;
40286;SDS011;25998;46.604;13.610;2023-05-10T06:12:26;6.43;;;5.20;;
40286;SDS011;25998;46.604;13.610;2023-05-10T06:15:37;6.43;;;5.45;;
40286;SDS011;25998;46.604;13.610;2023-05-10T06:18:48;6.20;;;5.30;;
40286;SDS011;25998;46.604;13.610;2023-05-10T06:21:59;6.03;;;4.80;;
40286;SDS011;25998;46.604;13.610;2023-05-10T06:25:10;5.97;;;4.95;;
40286;SDS011;25998;46.604;13.610;2023-05-10T06:28:21;5.95;;;5.00;;
40286;SDS011;25998;46.604;13.610;2023-05-10T06:31:32;7.85;;;4.93;;
40286;SDS011;25998;46.604;13.610;2023-05-10T06:34:43;6.93;;;5.47;;
40286;SDS011;25998;46.604;13.610;2023-05-10T06:37:54;6.65;;;5.38;;
40286;SDS011;25998;46.604;13.610;2023-05-10T06:41:05;6.80;;;5.20;;
40286;SDS011;25998;46.604;13.610;2023-05-10T06:44:16;7.07;;;5.07;;
40286;SDS011;25998;46.604;13.610;2023-05-10T06:47:27;8.95;;;5.20;;
40286;SDS011;25998;46.604;13.610;2023-05-10T06:50:37;5.55;;;4.70;;
40286;SDS011;25998;46.604;13.610;2023-05-10T06:53:48;7.80;;;4.90;;
40286;SDS011;25998;46.604;13.610;2023-05-10T06:56:59;9.77;;;5.88;;
40286;SDS011;25998;46.604;13.610;2023-05-10T07:00:10;6.55;;;4.90;;
40286;SDS011;25998;46.604;13.610;2023-05-10T07:03:21;6.15;;;5.05;;
40286;SDS011;25998;46.604;13.610;2023-05-10T07:06:32;5.78;;;5.00;;
40286;SDS011;25998;46.604;13.610;2023-05-10T07:09:43;8.63;;;5.22;;
40286;SDS011;25998;46.604;13.610;2023-05-10T07:12:55;5.68;;;5.05;;
40286;SDS011;25998;46.604;13.610;2023-05-10T07:16:05;7.97;;;5.43;;
40286;SDS011;25998;46.604;13.610;2023-05-10T07:19:17;5.60;;;4.80;;
40286;SDS011;25998;46.604;13.610;2023-05-10T07:22:28;6.03;;;5.15;;
40286;SDS011;25998;46.604;13.610;2023-05-10T07:25:39;7.45;;;4.85;;
40286;SDS011;25998;46.604;13.610;2023-05-10T07:28:50;7.95;;;5.30;;
40286;SDS011;25998;46.604;13.610;2023-05-10T07:32:00;6.95;;;5.47;;
40286;SDS011;25998;46.604;13.610;2023-05-10T07:35:11;6.40;;;5.32;;
40286;SDS011;25998;46.604;13.610;2023-05-10T07:38:22;5.90;;;5.13;;
40286;SDS011;25998;46.604;13.610;2023-05-10T07:41:33;8.75;;;4.80;;
40286;SDS011;25998;46.604;13.610;2023-05-10T07:44:44;6.35;;;4.30;;
40286;SDS011;25998;46.604;13.610;2023-05-10T07:47:55;6.28;;;4.55;;
40286;SDS011;25998;46.604;13.610;2023-05-10T07:51:06;5.53;;;4.57;;
40286;SDS011;25998;46.604;13.610;2023-05-10T07:54:19;6.07;;;5.05;;
40286;SDS011;25998;46.604;13.610;2023-05-10T07:57:30;5.72;;;4.45;;
40286;SDS011;25998;46.604;13.610;2023-05-10T08:00:41;5.68;;;4.75;;
40286;SDS011;25998;46.604;13.610;2023-05-10T08:03:52;5.65;;;4.57;;
40286;SDS011;25998;46.604;13.610;2023-05-10T08:07:03;7.28;;;4.90;;
40286;SDS011;25998;46.604;13.610;2023-05-10T08:10:14;5.68;;;4.45;;
40286;SDS011;25998;46.604;13.610;2023-05-10T08:13:25;5.78;;;4.32;;
40286;SDS011;25998;46.604;13.610;2023-05-10T08:16:35;5.35;;;4.57;;
40286;SDS011;25998;46.604;13.610;2023-05-10T08:19:46;6.03;;;4.28;;
40286;SDS011;25998;46.604;13.610;2023-05-10T08:22:57;5.65;;;4.45;;
40286;SDS011;25998;46.604;13.610;2023-05-10T08:26:08;5.28;;;4.47;;
40286;SDS011;25998;46.604;13.610;2023-05-10T08:29:19;5.78;;;4.60;;
40286;SDS011;25998;46.604;13.610;2023-05-10T08:32:30;6.03;;;4.30;;
40286;SDS011;25998;46.604;13.610;2023-05-10T08:35:41;5.50;;;4.28;;
40286;SDS011;25998;46.604;13.610;2023-05-10T08:38:51;5.28;;;4.22;;
40286;SDS011;25998;46.604;13.610;2023-05-10T08:42:03;5.60;;;4.60;;
40286;SDS011;25998;46.604;13.610;2023-05-10T08:45:15;6.15;;;4.15;;
40286;SDS011;25998;46.604;13.610;2023-05-10T08:48:28;4.78;;;3.80;;
40286;SDS011;25998;46.604;13.610;2023-05-10T08:51:40;4.82;;;4.32;;
40286;SDS011;25998;46.604;13.610;2023-05-10T08:54:57;5.63;;;4.57;;
40286;SDS011;25998;46.604;13.610;2023-05-10T08:58:09;5.78;;;4.40;;
40286;SDS011;25998;46.604;13.610;2023-05-10T09:01:20;5.85;;;4.50;;
40286;SDS011;25998;46.604;13.610;2023-05-10T09:04:31;5.80;;;4.30;;
40286;SDS011;25998;46.604;13.610;2023-05-10T09:07:42;4.82;;;3.70;;
40286;SDS011;25998;46.604;13.610;2023-05-10T09:10:54;4.78;;;4.28;;
40286;SDS011;25998;46.604;13.610;2023-05-10T09:14:05;7.78;;;4.68;;
40286;SDS011;25998;46.604;13.610;2023-05-10T09:17:16;4.88;;;4.10;;
40286;SDS011;25998;46.604;13.610;2023-05-10T09:20:27;5.82;;;4.95;;
40286;SDS011;25998;46.604;13.610;2023-05-10T09:23:42;7.32;;;4.28;;
40286;SDS011;25998;46.604;13.610;2023-05-10T09:26:53;4.95;;;4.00;;
40286;SDS011;25998;46.604;13.610;2023-05-10T09:30:07;5.88;;;4.00;;
40286;SDS011;25998;46.604;13.610;2023-05-10T09:33:18;4.35;;;3.85;;
40286;SDS011;25998;46.604;13.610;2023-05-10T09:36:30;6.10;;;4.18;;
40286;SDS011;25998;46.604;13.610;2023-05-10T09:39:41;5.07;;;4.00;;
40286;SDS011;25998;46.604;13.610;2023-05-10T09:42:58;5.38;;;4.80;;
40286;SDS011;25998;46.604;13.610;2023-05-10T09:46:16;9.20;;;4.18;;
40286;SDS011;25998;46.604;13.610;2023-05-10T09:49:27;6.57;;;4.05;;
40286;SDS011;25998;46.604;13.610;2023-05-10T09:56:13;5.43;;;3.70;;
40286;SDS011;25998;46.604;13.610;2023-05-10T09:59:26;5.28;;;4.20;;
40286;SDS011;25998;46.604;13.610;2023-05-10T10:02:38;8.10;;;4.57;;
40286;SDS011;25998;46.604;13.610;2023-05-10T10:05:50;4.95;;;3.90;;
40286;SDS011;25998;46.604;13.610;2023-05-10T10:09:02;6.88;;;4.47;;
40286;SDS011;25998;46.604;13.610;2023-05-10T10:12:15;5.68;;;4.28;;
40286;SDS011;25998;46.604;13.610;2023-05-10T10:15:25;6.97;;;3.85;;
40286;SDS011;25998;46.604;13.610;2023-05-10T10:18:36;5.05;;;3.80;;
40286;SDS011;25998;46.604;13.610;2023-05-10T10:21:50;5.55;;;3.70;;
40286;SDS011;25998;46.604;13.610;2023-05-10T10:25:01;5.72;;;3.35;;
40286;SDS011;25998;46.604;13.610;2023-05-10T10:28:18;6.45;;;3.45;;
40286;SDS011;25998;46.604;13.610;2023-05-10T10:31:47;4.55;;;3.80;;
40286;SDS011;25998;46.604;13.610;2023-05-10T10:35:00;4.15;;;3.63;;
40286;SDS011;25998;46.604;13.610;2023-05-10T10:38:12;4.72;;;3.40;;
40286;SDS011;25998;46.604;13.610;2023-05-10T10:44:47;20.55;;;7.70;;
40286;SDS011;25998;46.604;13.610;2023-05-10T10:51:32;18.70;;;7.75;;
40286;SDS011;25998;46.604;13.610;2023-05-10T10:54:52;16.42;;;7.15;;
40286;SDS011;25998;46.604;13.610;2023-05-10T10:58:08;9.50;;;3.55;;
40286;SDS011;25998;46.604;13.610;2023-05-10T11:01:19;4.80;;;3.13;;
40286;SDS011;25998;46.604;13.610;2023-05-10T11:04:34;7.22;;;3.30;;
40286;SDS011;25998;46.604;13.610;2023-05-10T11:07:54;8.13;;;4.22;;
40286;SDS011;25998;46.604;13.610;2023-05-10T11:11:06;4.72;;;3.15;;
40286;SDS011;25998;46.604;13.610;2023-05-10T11:14:19;5.28;;;3.30;;
40286;SDS011;25998;46.604;13.610;2023-05-10T11:17:32;4.00;;;3.10;;
40286;SDS011;25998;46.604;13.610;2023-05-10T11:20:49;4.97;;;3.60;;
40286;SDS011;25998;46.604;13.610;2023-05-10T11:24:12;4.22;;;3.42;;
40286;SDS011;25998;46.604;13.610;2023-05-10T11:27:24;4.25;;;3.70;;
40286;SDS011;25998;46.604;13.610;2023-05-10T11:30:35;7.30;;;3.90;;
40286;SDS011;25998;46.604;13.610;2023-05-10T11:33:49;27.25;;;5.75;;
40286;SDS011;25998;46.604;13.610;2023-05-10T11:37:01;4.60;;;3.67;;
40286;SDS011;25998;46.604;13.610;2023-05-10T11:40:12;8.00;;;5.00;;
40286;SDS011;25998;46.604;13.610;2023-05-10T11:43:23;6.95;;;4.10;;
40286;SDS011;25998;46.604;13.610;2023-05-10T11:46:40;4.95;;;3.53;;
40286;SDS011;25998;46.604;13.610;2023-05-10T11:49:51;6.90;;;3.92;;
40286;SDS011;25998;46.604;13.610;2023-05-10T11:53:02;5.03;;;4.15;;
40286;SDS011;25998;46.604;13.610;2023-05-10T11:56:13;5.35;;;3.85;;
40286;SDS011;25998;46.604;13.610;2023-05-10T11:59:23;4.55;;;3.85;;
40286;SDS011;25998;46.604;13.610;2023-05-10T12:02:35;5.78;;;3.88;;
40286;SDS011;25998;46.604;13.610;2023-05-10T12:05:46;4.85;;;3.88;;
40286;SDS011;25998;46.604;13.610;2023-05-10T12:08:57;5.13;;;4.05;;
40286;SDS011;25998;46.604;13.610;2023-05-10T12:12:08;4.95;;;4.20;;
40286;SDS011;25998;46.604;13.610;2023-05-10T12:15:23;5.20;;;4.68;;
40286;SDS011;25998;46.604;13.610;2023-05-10T12:18:34;7.95;;;4.80;;
40286;SDS011;25998;46.604;13.610;2023-05-10T12:21:50;6.07;;;4.00;;
40286;SDS011;25998;46.604;13.610;2023-05-10T12:25:00;6.10;;;4.28;;
40286;SDS011;25998;46.604;13.610;2023-05-10T12:28:12;6.38;;;5.00;;
40286;SDS011;25998;46.604;13.610;2023-05-10T12:31:23;5.05;;;4.53;;
40286;SDS011;25998;46.604;13.610;2023-05-10T12:34:34;5.25;;;4.38;;
40286;SDS011;25998;46.604;13.610;2023-05-10T12:37:48;6.15;;;4.28;;
40286;SDS011;25998;46.604;13.610;2023-05-10T12:41:03;5.68;;;4.53;;
40286;SDS011;25998;46.604;13.610;2023-05-10T12:44:19;4.93;;;4.22;;
40286;SDS011;25998;46.604;13.610;2023-05-10T12:47:30;7.78;;;4.50;;
40286;SDS011;25998;46.604;13.610;2023-05-10T12:50:41;5.30;;;4.40;;
40286;SDS011;25998;46.604;13.610;2023-05-10T12:53:52;7.50;;;4.70;;
40286;SDS011;25998;46.604;13.610;2023-05-10T12:57:04;6.85;;;4.95;;
40286;SDS011;25998;46.604;13.610;2023-05-10T13:00:15;5.50;;;4.82;;
40286;SDS011;25998;46.604;13.610;2023-05-10T13:03:26;6.38;;;4.20;;
40286;SDS011;25998;46.604;13.610;2023-05-10T13:06:37;6.85;;;4.50;;
40286;SDS011;25998;46.604;13.610;2023-05-10T13:09:48;4.65;;;3.97;;
40286;SDS011;25998;46.604;13.610;2023-05-10T13:12:58;5.25;;;4.22;;
40286;SDS011;25998;46.604;13.610;2023-05-10T13:16:09;6.00;;;3.72;;
40286;SDS011;25998;46.604;13.610;2023-05-10T13:19:20;6.53;;;4.28;;
40286;SDS011;25998;46.604;13.610;2023-05-10T13:22:31;4.60;;;3.78;;
40286;SDS011;25998;46.604;13.610;2023-05-10T13:25:41;7.65;;;4.28;;
40286;SDS011;25998;46.604;13.610;2023-05-10T13:28:52;9.00;;;4.63;;
40286;SDS011;25998;46.604;13.610;2023-05-10T13:32:05;5.95;;;4.13;;
40286;SDS011;25998;46.604;13.610;2023-05-10T13:35:16;5.07;;;4.25;;
40286;SDS011;25998;46.604;13.610;2023-05-10T13:38:27;8.70;;;4.40;;
40286;SDS011;25998;46.604;13.610;2023-05-10T13:41:38;5.93;;;4.30;;
40286;SDS011;25998;46.604;13.610;2023-05-10T13:44:49;5.03;;;3.95;;
40286;SDS011;25998;46.604;13.610;2023-05-10T13:48:00;6.50;;;4.20;;
40286;SDS011;25998;46.604;13.610;2023-05-10T13:51:11;4.53;;;3.90;;
40286;SDS011;25998;46.604;13.610;2023-05-10T13:54:23;4.97;;;3.90;;
40286;SDS011;25998;46.604;13.610;2023-05-10T13:57:34;5.18;;;3.85;;
40286;SDS011;25998;46.604;13.610;2023-05-10T14:00:46;7.05;;;4.28;;
40286;SDS011;25998;46.604;13.610;2023-05-10T14:03:56;4.97;;;4.00;;
40286;SDS011;25998;46.604;13.610;2023-05-10T14:07:07;5.28;;;3.70;;
40286;SDS011;25998;46.604;13.610;2023-05-10T14:10:18;4.95;;;4.10;;
40286;SDS011;25998;46.604;13.610;2023-05-10T14:13:29;4.22;;;3.50;;
40286;SDS011;25998;46.604;13.610;2023-05-10T14:16:43;4.80;;;3.90;;
40286;SDS011;25998;46.604;13.610;2023-05-10T14:19:55;5.47;;;4.07;;
40286;SDS011;25998;46.604;13.610;2023-05-10T14:23:05;5.00;;;4.00;;
40286;SDS011;25998;46.604;13.610;2023-05-10T14:26:17;4.28;;;3.67;;
40286;SDS011;25998;46.604;13.610;2023-05-10T14:29:28;5.20;;;3.90;;
40286;SDS011;25998;46.604;13.610;2023-05-10T14:32:38;6.15;;;4.55;;
40286;SDS011;25998;46.604;13.610;2023-05-10T14:35:49;6.53;;;4.30;;
40286;SDS011;25998;46.604;13.610;2023-05-10T14:39:00;6.20;;;4.65;;
40286;SDS011;25998;46.604;13.610;2023-05-10T14:42:12;4.90;;;4.40;;
40286;SDS011;25998;46.604;13.610;2023-05-10T14:45:23;5.55;;;4.10;;
40286;SDS011;25998;46.604;13.610;2023-05-10T14:48:34;6.43;;;4.63;;
40286;SDS011;25998;46.604;13.610;2023-05-10T14:51:45;6.07;;;4.80;;
40286;SDS011;25998;46.604;13.610;2023-05-10T14:54:56;7.90;;;4.80;;
40286;SDS011;25998;46.604;13.610;2023-05-10T14:58:09;5.45;;;4.68;;
40286;SDS011;25998;46.604;13.610;2023-05-10T15:01:19;6.68;;;4.55;;
40286;SDS011;25998;46.604;13.610;2023-05-10T15:04:31;5.10;;;4.55;;
40286;SDS011;25998;46.604;13.610;2023-05-10T15:07:44;6.15;;;4.63;;
40286;SDS011;25998;46.604;13.610;2023-05-10T15:10:55;4.85;;;4.20;;
40286;SDS011;25998;46.604;13.610;2023-05-10T15:14:06;7.75;;;5.00;;
40286;SDS011;25998;46.604;13.610;2023-05-10T15:17:17;7.50;;;4.85;;
40286;SDS011;25998;46.604;13.610;2023-05-10T15:20:28;9.95;;;5.28;;
40286;SDS011;25998;46.604;13.610;2023-05-10T15:23:38;5.88;;;5.03;;
40286;SDS011;25998;46.604;13.610;2023-05-10T15:26:49;5.65;;;4.75;;
40286;SDS011;25998;46.604;13.610;2023-05-10T15:30:00;5.55;;;4.25;;
40286;SDS011;25998;46.604;13.610;2023-05-10T15:33:11;5.80;;;4.60;;
40286;SDS011;25998;46.604;13.610;2023-05-10T15:36:22;5.07;;;4.57;;
40286;SDS011;25998;46.604;13.610;2023-05-10T15:39:33;5.30;;;4.80;;
40286;SDS011;25998;46.604;13.610;2023-05-10T15:42:44;6.75;;;4.57;;
40286;SDS011;25998;46.604;13.610;2023-05-10T15:45:55;6.22;;;5.38;;
40286;SDS011;25998;46.604;13.610;2023-05-10T15:49:06;6.70;;;5.60;;
40286;SDS011;25998;46.604;13.610;2023-05-10T15:52:17;9.02;;;6.50;;
40286;SDS011;25998;46.604;13.610;2023-05-10T15:55:28;7.25;;;5.85;;
40286;SDS011;25998;46.604;13.610;2023-05-10T15:58:39;6.97;;;5.68;;
40286;SDS011;25998;46.604;13.610;2023-05-10T16:01:51;6.97;;;5.88;;
40286;SDS011;25998;46.604;13.610;2023-05-10T16:05:02;6.10;;;5.50;;
40286;SDS011;25998;46.604;13.610;2023-05-10T16:08:13;7.47;;;6.60;;
40286;SDS011;25998;46.604;13.610;2023-05-10T16:11:24;7.07;;;6.10;;
40286;SDS011;25998;46.604;13.610;2023-05-10T16:14:35;7.70;;;6.90;;
40286;SDS011;25998;46.604;13.610;2023-05-10T16:17:46;7.47;;;6.32;;
40286;SDS011;25998;46.604;13.610;2023-05-10T16:20:57;8.35;;;6.35;;
40286;SDS011;25998;46.604;13.610;2023-05-10T16:24:08;9.02;;;6.80;;
40286;SDS011;25998;46.604;13.610;2023-05-10T16:27:19;8.07;;;6.35;;
40286;SDS011;25998;46.604;13.610;2023-05-10T16:30:30;7.25;;;5.97;;
40286;SDS011;25998;46.604;13.610;2023-05-10T16:33:41;7.85;;;6.13;;
40286;SDS011;25998;46.604;13.610;2023-05-10T16:36:52;7.45;;;5.38;;
40286;SDS011;25998;46.604;13.610;2023-05-10T16:40:03;6.57;;;5.88;;
40286;SDS011;25998;46.604;13.610;2023-05-10T16:43:14;7.28;;;6.07;;
40286;SDS011;25998;46.604;13.610;2023-05-10T16:46:26;7.60;;;5.50;;
40286;SDS011;25998;46.604;13.610;2023-05-10T16:49:36;7.80;;;5.28;;
40286;SDS011;25998;46.604;13.610;2023-05-10T16:52:47;6.50;;;5.40;;
40286;SDS011;25998;46.604;13.610;2023-05-10T16:55:58;7.25;;;5.63;;
40286;SDS011;25998;46.604;13.610;2023-05-10T16:59:09;6.65;;;5.07;;
40286;SDS011;25998;46.604;13.610;2023-05-10T17:02:20;6.07;;;5.40;;
40286;SDS011;25998;46.604;13.610;2023-05-10T17:05:32;7.18;;;5.65;;
40286;SDS011;25998;46.604;13.610;2023-05-10T17:08:43;7.15;;;5.45;;
40286;SDS011;25998;46.604;13.610;2023-05-10T17:11:54;7.93;;;5.88;;
40286;SDS011;25998;46.604;13.610;2023-05-10T17:15:05;7.47;;;5.80;;
40286;SDS011;25998;46.604;13.610;2023-05-10T17:18:16;6.95;;;5.53;;
40286;SDS011;25998;46.604;13.610;2023-05-10T17:21:27;6.05;;;5.45;;
40286;SDS011;25998;46.604;13.610;2023-05-10T17:24:37;5.45;;;4.60;;
40286;SDS011;25998;46.604;13.610;2023-05-10T17:27:51;9.13;;;8.13;;
40286;SDS011;25998;46.604;13.610;2023-05-10T17:31:02;8.27;;;5.75;;
40286;SDS011;25998;46.604;13.610;2023-05-10T17:34:13;6.55;;;5.45;;
40286;SDS011;25998;46.604;13.610;2023-05-10T17:37:24;6.15;;;5.13;;
40286;SDS011;25998;46.604;13.610;2023-05-10T17:40:35;8.10;;;5.40;;
40286;SDS011;25998;46.604;13.610;2023-05-10T17:43:49;6.75;;;5.28;;
40286;SDS011;25998;46.604;13.610;2023-05-10T17:47:00;7.63;;;5.43;;
40286;SDS011;25998;46.604;13.610;2023-05-10T17:50:10;6.07;;;5.15;;
40286;SDS011;25998;46.604;13.610;2023-05-10T17:53:21;5.97;;;5.20;;
40286;SDS011;25998;46.604;13.610;2023-05-10T17:56:32;6.47;;;5.65;;
40286;SDS011;25998;46.604;13.610;2023-05-10T17:59:43;8.15;;;5.97;;
40286;SDS011;25998;46.604;13.610;2023-05-10T18:02:54;6.75;;;5.68;;
40286;SDS011;25998;46.604;13.610;2023-05-10T18:06:04;7.22;;;6.03;;
40286;SDS011;25998;46.604;13.610;2023-05-10T18:09:16;7.38;;;5.15;;
40286;SDS011;25998;46.604;13.610;2023-05-10T18:12:27;7.88;;;6.28;;
40286;SDS011;25998;46.604;13.610;2023-05-10T18:15:38;7.32;;;5.72;;
40286;SDS011;25998;46.604;13.610;2023-05-10T18:18:48;5.63;;;5.07;;
40286;SDS011;25998;46.604;13.610;2023-05-10T18:21:59;4.55;;;3.78;;
40286;SDS011;25998;46.604;13.610;2023-05-10T18:25:10;5.20;;;4.40;;
40286;SDS011;25998;46.604;13.610;2023-05-10T18:28:21;5.70;;;4.40;;
40286;SDS011;25998;46.604;13.610;2023-05-10T18:31:33;6.32;;;5.03;;
40286;SDS011;25998;46.604;13.610;2023-05-10T18:34:44;7.03;;;5.55;;
40286;SDS011;25998;46.604;13.610;2023-05-10T18:37:55;6.07;;;5.05;;
40286;SDS011;25998;46.604;13.610;2023-05-10T18:41:05;6.18;;;4.68;;
40286;SDS011;25998;46.604;13.610;2023-05-10T18:44:16;7.03;;;5.28;;
40286;SDS011;25998;46.604;13.610;2023-05-10T18:47:28;5.43;;;4.93;;
40286;SDS011;25998;46.604;13.610;2023-05-10T18:50:38;6.70;;;5.00;;
40286;SDS011;25998;46.604;13.610;2023-05-10T18:53:49;7.70;;;5.15;;
40286;SDS011;25998;46.604;13.610;2023-05-10T18:57:00;6.00;;;4.93;;
40286;SDS011;25998;46.604;13.610;2023-05-10T19:00:11;6.85;;;5.18;;
40286;SDS011;25998;46.604;13.610;2023-05-10T19:03:22;6.18;;;5.00;;
40286;SDS011;25998;46.604;13.610;2023-05-10T19:06:33;8.43;;;6.72;;
40286;SDS011;25998;46.604;13.610;2023-05-10T19:09:44;6.97;;;5.93;;
40286;SDS011;25998;46.604;13.610;2023-05-10T19:12:55;5.45;;;4.40;;
40286;SDS011;25998;46.604;13.610;2023-05-10T19:16:10;7.18;;;5.18;;
40286;SDS011;25998;46.604;13.610;2023-05-10T19:19:21;6.57;;;5.30;;
40286;SDS011;25998;46.604;13.610;2023-05-10T19:22:32;7.70;;;5.63;;
40286;SDS011;25998;46.604;13.610;2023-05-10T19:25:43;7.22;;;5.28;;
40286;SDS011;25998;46.604;13.610;2023-05-10T19:28:54;5.72;;;5.00;;